Hathaway, MT (59333)

12:44 AM MDT on August 30, 2014 (GMT -0600)
KMTFORSY4 | Change Station
CLOSE
Current Station
Personal Weather Station
Location: Forsyth, MT
Elevation: 2776 ft
Nearby Weather Stations

Elev 2776 ft 46.30 °N, 106.70 °W | Updated 10 seconds ago

Clear
Clear
63.5 °F
Feels Like 63.5 °F
N
11.8
Wind Variable Wind from ENE
Gusts 22.5 mph

Today
High -- | Low -- °F
--% Chance of Precip.
Yesterday
High -- | Low -- °F
Precip. -- in
6:22 AM 7:47 PM
Waxing Crescent, 19% visible
Pressure 29.89 in
Visibility 10.0 miles
Clouds Clear
Dew Point 53 °F
Humidity 69%
Rainfall 0.00 in
Snow Depth Not available.
UV 0 out of 12
Pollen 8.70 out of 12
Air Quality Not available.
Flu Activity Not available.
METAR KMLS 300553Z AUTO 16005KT 10SM CLR 14/10 A2992 RMK AO2 SLP122 T01440100 10228 20144 58010

More Conditions Fewer Conditions

Pressure 29.89 in
Visibility 10.0 miles
Clouds Clear
Dew Point 53 °F
Humidity 69%
Rainfall 0.00 in
Snow Depth Not available.
UV 0 out of 12
Pollen 8.70 out of 12
Air Quality Not available.
Flu Activity Not available.
METAR KMLS 300553Z AUTO 16005KT 10SM CLR 14/10 A2992 RMK AO2 SLP122 T01440100 10228 20144 58010

More Conditions Fewer Conditions

10-Day Weather Forecast

Almanac

Astronomy

Aug. 30, 2014 Rise Set
Actual Time 6:22 AM MDT 7:47 PM MDT
Civil Twilight 5:51 AM MDT 8:18 PM MDT
Nautical Twilight 5:13 AM MDT 8:55 PM MDT
Astronomical Twilight 4:33 AM MDT 9:36 PM MDT
Moon 11:31 AM MDT 10:03 PM MDT
Length of Visible Light 14h 26m
Length of Day
13h 24m
Tomorrow will be 3m 9s shorter.
Waxing Crescent, 19% of the Moon is Illuminated
Today
Waxing Crescent
Sep 2
First Quarter
Sep 8
Full
Sep 15
Last Quarter
Sep 24
New

Today's Extremes

State Highs State Lows

Community

WunderPhotos

Upload Photos

1,748,462 photos uploaded!

Nearby

Snow Depth

Station Depth Elevation
Crystal Lake 0 in 6050 ft
Cole Creek 0 in 7850 ft
Burnt Mountain 0 in 5880 ft
Placer Basin 0 in 8830 ft
White Mill 1 in 8700 ft

Earthquake Activity

City Distance Mag. Time & Date
No recent earthquake activity has been reported nearby.
Minimum magnitude displayed is 2.5.

Coastal Water Temperatures

Place Temperature
No Stations Reporting

Nearby Weather Stations